createdAt,value
2023-05-14T00:05:01.306Z,12.49
2023-05-14T00:10:04.448Z,12.38
2023-05-14T00:15:10.127Z,12.42
2023-05-14T00:20:13.610Z,12.47
2023-05-14T00:25:16.539Z,12.52
2023-05-14T00:30:20.827Z,12.53
2023-05-14T00:35:24.059Z,12.48
2023-05-14T00:40:28.423Z,12.43
2023-05-14T00:45:32.658Z,12.38
2023-05-14T00:50:36.492Z,12.33
2023-05-14T00:55:42.067Z,12.28
2023-05-14T01:00:46.895Z,12.21
2023-05-14T01:05:58.305Z,12.31
2023-05-14T01:11:08.401Z,12.35
2023-05-14T01:16:14.972Z,12.29
2023-05-14T01:21:35.870Z,12.27
2023-05-14T01:26:38.894Z,12.06
2023-05-14T01:31:45.337Z,12.03
2023-05-14T01:36:51.488Z,12.20
2023-05-14T01:41:55.410Z,12.15
2023-05-14T01:46:58.817Z,12.18
2023-05-14T01:52:03.048Z,12.24
2023-05-14T01:57:06.470Z,12.09
2023-05-14T02:02:09.456Z,12.01
2023-05-14T02:07:13.734Z,12.01
2023-05-14T02:12:16.670Z,11.99
2023-05-14T02:17:19.604Z,11.92
2023-05-14T02:22:23.884Z,11.90
2023-05-14T02:27:26.911Z,11.75
2023-05-14T02:32:29.905Z,11.51
2023-05-14T02:37:34.764Z,11.41
2023-05-14T02:42:37.740Z,11.33
2023-05-14T02:47:41.244Z,11.32
2023-05-14T02:52:45.681Z,11.16
2023-05-14T02:57:48.590Z,11.03
2023-05-14T03:02:51.792Z,10.93
2023-05-14T03:07:56.511Z,10.69
2023-05-14T03:12:59.383Z,10.71
2023-05-14T03:18:02.338Z,10.60
2023-05-14T03:23:06.853Z,10.65
2023-05-14T03:28:09.844Z,10.70
2023-05-14T03:33:12.763Z,10.65
2023-05-14T03:38:17.068Z,10.73
2023-05-14T03:43:22.924Z,10.82
2023-05-14T03:48:26.448Z,10.71
2023-05-14T03:53:30.862Z,10.82
2023-05-14T03:58:33.903Z,10.85
2023-05-14T04:03:36.942Z,11.02
2023-05-14T04:08:41.840Z,11.19
2023-05-14T04:13:44.861Z,12.35
2023-05-14T04:18:48.213Z,12.94
2023-05-14T04:23:52.728Z,14.04
2023-05-14T04:28:55.736Z,14.61
2023-05-14T04:33:58.628Z,15.17
2023-05-14T04:39:02.961Z,15.10
2023-05-14T04:44:06.797Z,13.99
2023-05-14T04:49:09.632Z,13.22
2023-05-14T04:54:13.953Z,12.56
2023-05-14T04:59:16.896Z,12.62
2023-05-14T05:04:20.128Z,13.44
2023-05-14T05:09:24.447Z,13.56
2023-05-14T05:14:27.299Z,13.63
2023-05-14T05:19:42.439Z,15.00
2023-05-14T05:24:49.772Z,15.24
2023-05-14T05:29:53.030Z,15.79
2023-05-14T05:34:55.949Z,16.36
2023-05-14T05:40:00.180Z,16.66
2023-05-14T05:45:03.059Z,16.28
2023-05-14T05:50:07.614Z,17.98
2023-05-14T05:55:12.156Z,18.73
2023-05-14T06:00:16.926Z,18.35
2023-05-14T06:05:20.033Z,18.58
2023-05-14T06:10:25.757Z,18.77
2023-05-14T06:15:28.847Z,17.36
2023-05-14T06:20:31.719Z,18.83
2023-05-14T06:25:35.992Z,18.57
2023-05-14T06:30:38.865Z,18.82
2023-05-14T06:35:41.795Z,18.49
2023-05-14T06:40:46.001Z,18.72
2023-05-14T06:45:50.067Z,18.80
2023-05-14T06:50:52.999Z,18.48
2023-05-14T06:55:57.373Z,18.08
2023-05-14T07:01:01.700Z,18.76
2023-05-14T07:06:04.842Z,19.58
2023-05-14T07:11:09.149Z,18.97
2023-05-14T07:16:12.049Z,17.91
2023-05-14T07:21:14.948Z,18.74
2023-05-14T07:26:19.277Z,20.13
2023-05-14T07:31:22.226Z,18.98
2023-05-14T07:36:25.153Z,20.02
2023-05-14T07:41:29.487Z,17.97
2023-05-14T07:46:32.392Z,18.89
2023-05-14T07:51:35.435Z,20.45
2023-05-14T07:56:39.765Z,20.27
2023-05-14T08:01:42.771Z,20.52
2023-05-14T08:06:45.741Z,21.08
2023-05-14T08:11:50.035Z,20.84
2023-05-14T08:16:53.116Z,21.36
2023-05-14T08:21:56.080Z,20.31
2023-05-14T08:27:00.564Z,20.49
2023-05-14T08:32:11.673Z,19.47
2023-05-14T08:37:22.587Z,21.00
2023-05-14T08:42:29.754Z,22.34
2023-05-14T08:47:32.780Z,22.12
2023-05-14T08:52:36.501Z,20.93
2023-05-14T08:57:41.452Z,21.76
2023-05-14T09:02:46.579Z,21.12
2023-05-14T09:07:49.669Z,21.67
2023-05-14T09:12:53.987Z,20.22
2023-05-14T09:17:57.758Z,20.01
2023-05-14T09:23:01.715Z,20.04
2023-05-14T09:28:10.128Z,20.53
2023-05-14T09:33:13.041Z,19.87
2023-05-14T09:38:16.225Z,19.89
2023-05-14T09:43:20.901Z,20.20
2023-05-14T09:48:24.466Z,19.92
2023-05-14T09:53:27.440Z,20.59
2023-05-14T09:58:31.698Z,20.15
2023-05-14T10:03:34.566Z,20.20
2023-05-14T10:08:44.810Z,20.12
2023-05-14T10:13:56.879Z,20.67
2023-05-14T10:19:06.075Z,20.30
2023-05-14T10:24:10.735Z,20.57
2023-05-14T10:29:15.186Z,20.29
2023-05-14T10:34:38.614Z,19.44
2023-05-14T10:39:43.762Z,19.56
2023-05-14T10:44:54.352Z,19.43
2023-05-14T10:49:59.781Z,19.28
2023-05-14T10:55:07.758Z,19.83
2023-05-14T11:00:14.498Z,19.26
2023-05-14T11:05:18.222Z,18.94
2023-05-14T11:10:23.249Z,19.39
2023-05-14T11:15:28.388Z,19.75
2023-05-14T11:20:32.755Z,19.02
2023-05-14T11:25:35.637Z,19.10
2023-05-14T11:30:39.882Z,19.35
2023-05-14T11:35:45.449Z,19.70
2023-05-14T11:40:54.110Z,20.41
2023-05-14T11:45:58.475Z,20.54
2023-05-14T11:51:01.421Z,21.34
2023-05-14T11:56:04.459Z,21.28
2023-05-14T12:01:14.270Z,21.55
2023-05-14T12:06:17.329Z,20.48
2023-05-14T12:11:22.431Z,20.53
2023-05-14T12:16:32.335Z,21.28
2023-05-14T12:21:36.632Z,20.90
2023-05-14T12:26:39.951Z,21.15
2023-05-14T12:31:49.036Z,20.99
2023-05-14T12:36:52.927Z,21.24
2023-05-14T12:41:55.809Z,21.16
2023-05-14T12:47:00.282Z,21.35
2023-05-14T12:52:17.284Z,21.30
2023-05-14T12:57:25.605Z,20.93
2023-05-14T13:02:29.856Z,22.22
2023-05-14T13:07:32.842Z,21.65
2023-05-14T13:12:35.824Z,21.56
2023-05-14T13:17:41.335Z,21.73
2023-05-14T13:22:44.279Z,21.78
2023-05-14T13:27:47.143Z,21.49
2023-05-14T13:32:51.597Z,21.01
2023-05-14T13:37:54.565Z,20.59
2023-05-14T13:42:57.646Z,20.79
2023-05-14T13:48:01.941Z,20.69
2023-05-14T13:53:04.829Z,20.60
2023-05-14T13:58:09.956Z,20.20
2023-05-14T14:03:14.273Z,20.05
2023-05-14T14:08:23.473Z,20.24
2023-05-14T14:13:27.809Z,19.69
2023-05-14T14:18:32.080Z,19.81
2023-05-14T14:23:34.994Z,19.90
2023-05-14T14:28:38.042Z,19.66
2023-05-14T14:33:42.354Z,20.18
2023-05-14T14:38:45.245Z,19.94
2023-05-14T14:43:48.164Z,20.10
2023-05-14T14:48:52.744Z,20.25
2023-05-14T14:53:55.584Z,20.11
2023-05-14T14:58:58.430Z,20.36
2023-05-14T15:04:02.743Z,20.36
2023-05-14T15:09:05.686Z,20.29
2023-05-14T15:14:08.614Z,20.01
2023-05-14T15:19:12.905Z,19.94
2023-05-14T15:24:16.014Z,20.10
2023-05-14T15:29:18.925Z,19.57
2023-05-14T15:34:23.209Z,19.82
2023-05-14T15:39:26.299Z,19.66
2023-05-14T15:44:29.815Z,19.75
2023-05-14T15:49:34.029Z,19.74
2023-05-14T15:54:37.015Z,19.71
2023-05-14T15:59:39.923Z,19.64
2023-05-14T16:04:45.164Z,19.66
2023-05-14T16:09:48.037Z,19.39
2023-05-14T16:14:50.989Z,19.28
2023-05-14T16:19:56.444Z,19.32
2023-05-14T16:25:01.795Z,19.07
2023-05-14T16:30:07.454Z,18.99
2023-05-14T16:35:12.004Z,18.36
2023-05-14T16:40:16.208Z,18.25
2023-05-14T16:45:19.215Z,18.04
2023-05-14T16:50:23.666Z,17.97
2023-05-14T16:55:27.178Z,17.68
2023-05-14T17:00:30.214Z,17.44
2023-05-14T17:05:35.985Z,17.43
2023-05-14T17:10:39.126Z,17.27
2023-05-14T17:15:42.541Z,17.13
2023-05-14T17:20:46.840Z,17.21
2023-05-14T17:25:49.827Z,17.07
2023-05-14T17:30:52.785Z,17.08
2023-05-14T17:35:57.072Z,16.83
2023-05-14T17:41:00.007Z,16.70
2023-05-14T17:46:03.616Z,16.87
2023-05-14T17:51:08.020Z,16.96
2023-05-14T17:56:11.362Z,16.88
2023-05-14T18:01:14.351Z,16.59
2023-05-14T18:06:18.851Z,16.60
2023-05-14T18:11:21.801Z,16.21
2023-05-14T18:16:24.776Z,16.45
2023-05-14T18:21:29.192Z,16.24
2023-05-14T18:26:34.201Z,16.32
2023-05-14T18:31:37.405Z,16.48
2023-05-14T18:36:41.844Z,16.25
2023-05-14T18:41:44.759Z,15.91
2023-05-14T18:46:47.687Z,15.94
2023-05-14T18:51:51.986Z,15.61
2023-05-14T18:56:54.933Z,15.20
2023-05-14T19:01:57.990Z,15.30
2023-05-14T19:07:02.570Z,15.31
2023-05-14T19:12:05.713Z,14.82
2023-05-14T19:17:08.686Z,14.73
2023-05-14T19:22:12.963Z,14.75
2023-05-14T19:27:17.330Z,14.39
2023-05-14T19:32:20.233Z,14.47
2023-05-14T19:37:24.866Z,14.53
2023-05-14T19:42:27.831Z,14.54
2023-05-14T19:47:30.908Z,14.21
2023-05-14T19:52:35.178Z,14.12
2023-05-14T19:57:39.171Z,14.32
2023-05-14T20:02:43.214Z,14.25
2023-05-14T20:07:48.893Z,14.08
2023-05-14T20:12:51.809Z,13.94
2023-05-14T20:17:54.928Z,13.85
2023-05-14T20:22:59.358Z,13.87
2023-05-14T20:28:02.364Z,13.85
2023-05-14T20:33:05.323Z,13.70
2023-05-14T20:38:09.706Z,13.73
2023-05-14T20:43:12.547Z,13.55
2023-05-14T20:48:17.532Z,13.45
2023-05-14T20:53:21.886Z,13.47
2023-05-14T20:58:24.792Z,13.35
2023-05-14T21:03:27.820Z,13.31
2023-05-14T21:08:32.972Z,13.20
2023-05-14T21:13:35.884Z,13.26
2023-05-14T21:18:38.809Z,13.16
2023-05-14T21:23:43.146Z,13.02
2023-05-14T21:28:45.997Z,13.02
2023-05-14T21:33:48.903Z,12.86
2023-05-14T21:38:53.922Z,12.81
2023-05-14T21:43:56.791Z,12.71
2023-05-14T21:49:00.070Z,12.83
2023-05-14T21:54:04.481Z,12.80
2023-05-14T21:59:07.442Z,12.87
2023-05-14T22:04:10.349Z,12.89
2023-05-14T22:09:14.676Z,12.66
2023-05-14T22:14:17.604Z,12.66
2023-05-14T22:19:20.501Z,12.83
2023-05-14T22:24:24.778Z,12.83
2023-05-14T22:29:27.666Z,12.66
2023-05-14T22:34:30.571Z,12.45
2023-05-14T22:39:34.828Z,12.20
2023-05-14T22:44:37.787Z,12.43
2023-05-14T22:49:42.335Z,12.56
2023-05-14T22:54:46.714Z,12.75
2023-05-14T22:59:49.726Z,12.72
2023-05-14T23:04:52.739Z,12.70
2023-05-14T23:09:57.119Z,12.63
2023-05-14T23:14:59.996Z,12.69
2023-05-14T23:20:05.162Z,12.66
2023-05-14T23:25:10.559Z,12.66
2023-05-14T23:30:14.175Z,12.65
2023-05-14T23:35:17.269Z,12.70
2023-05-14T23:40:21.480Z,12.67
2023-05-14T23:45:24.639Z,12.61
2023-05-14T23:50:28.162Z,12.60
2023-05-14T23:55:32.475Z,12.52
